Time;durP1;ratioP1;P1;durP2;ratioP2;P2;SDS_P1;SDS_P2;PMS_P1;PMS_P2;Temp;Humidity;BMP_temperature;BMP_pressure;BME280_temperature;BME280_humidity;BME280_pressure;Samples;Min_cycle;Max_cycle;Signal;HPM_P1;HPM_P2
2022/05/22 00:01:41;;;;;;;;;20.80;19.80;;;;;;;;5038983;28;9014;-65
2022/05/22 00:04:08;;;;;;;;;26.60;24.40;;;;;;;;5040733;28;8863;-65
2022/05/22 00:06:38;;;;;;;;;29.40;26.60;;;;;;;;5040266;28;8756;-65
2022/05/22 00:09:04;;;;;;;;;26.00;26.00;;;;;;;;5039352;28;8749;-65
2022/05/22 00:11:31;;;;;;;;;28.80;27.40;;;;;;;;5030667;28;8782;-64
2022/05/22 00:13:58;;;;;;;;;24.40;23.60;;;;;;;;5020267;28;8779;-65
2022/05/22 00:16:37;;;;;;;;;27.80;25.40;;;;;;;;5018758;28;8755;-61
2022/05/22 00:19:04;;;;;;;;;32.00;24.00;;;;;;;;5020815;28;8755;-65
2022/05/22 00:21:31;;;;;;;;;25.60;24.60;;;;;;;;5020054;28;8747;-65
2022/05/22 00:23:58;;;;;;;;;32.00;27.25;;;;;;;;5020301;28;8771;-65
2022/05/22 00:26:24;;;;;;;;;25.25;25.25;;;;;;;;5028043;28;8771;-64
2022/05/22 00:28:51;;;;;;;;;29.40;27.40;;;;;;;;5039974;28;8826;-64
2022/05/22 00:31:18;;;;;;;;;28.60;23.60;;;;;;;;5039004;28;8740;-63
2022/05/22 00:33:45;;;;;;;;;32.00;25.00;;;;;;;;5040028;28;9424;-64
2022/05/22 00:36:11;;;;;;;;;27.60;21.20;;;;;;;;5031415;28;8768;-64
2022/05/22 00:38:38;;;;;;;;;30.20;25.80;;;;;;;;5039434;28;8800;-65
2022/05/22 00:41:06;;;;;;;;;25.60;24.60;;;;;;;;5032486;28;9446;-64
2022/05/22 00:43:34;;;;;;;;;23.60;23.40;;;;;;;;5019875;28;8808;-64
2022/05/22 00:46:01;;;;;;;;;28.40;24.40;;;;;;;;5020473;28;8759;-64
2022/05/22 00:48:28;;;;;;;;;26.00;21.80;;;;;;;;5019634;28;8754;-64
2022/05/22 00:51:07;;;;;;;;;21.00;18.60;;;;;;;;5019880;28;8783;-64
2022/05/22 00:53:34;;;;;;;;;21.60;19.80;;;;;;;;5019480;28;9451;-65
2022/05/22 00:56:01;;;;;;;;;18.20;18.20;;;;;;;;5024316;28;8824;-64
2022/05/22 00:58:28;;;;;;;;;17.80;16.60;;;;;;;;5038005;28;8736;-64
2022/05/22 01:00:55;;;;;;;;;16.00;15.00;;;;;;;;5039980;28;8795;-64
2022/05/22 01:03:29;;;;;;;;;19.00;15.20;;;;;;;;5039165;28;8749;-64
2022/05/22 01:06:09;;;;;;;;;18.40;14.60;;;;;;;;5038158;28;8740;-64
2022/05/22 01:08:37;;;;;;;;;20.40;18.80;;;;;;;;5039061;28;8760;-64
2022/05/22 01:11:13;;;;;;;;;19.60;18.20;;;;;;;;5034003;28;8751;-65
2022/05/22 01:13:41;;;;;;;;;20.00;17.40;;;;;;;;5018186;28;8751;-64
2022/05/22 01:16:08;;;;;;;;;16.80;15.80;;;;;;;;5019960;28;8758;-64
2022/05/22 01:18:45;;;;;;;;;18.60;15.20;;;;;;;;5018507;28;8787;-65
2022/05/22 01:21:13;;;;;;;;;18.80;16.60;;;;;;;;5019358;28;8762;-64
2022/05/22 01:23:40;;;;;;;;;19.80;17.00;;;;;;;;5019020;28;8758;-65
2022/05/22 01:26:06;;;;;;;;;20.00;17.60;;;;;;;;5024991;28;8784;-65
2022/05/22 01:28:33;;;;;;;;;16.00;14.60;;;;;;;;5038679;28;8740;-64
2022/05/22 01:31:00;;;;;;;;;17.20;15.60;;;;;;;;5038179;28;8784;-65
2022/05/22 01:33:27;;;;;;;;;15.80;14.20;;;;;;;;5038719;28;8748;-64
2022/05/22 01:35:54;;;;;;;;;19.60;16.00;;;;;;;;5038949;28;8736;-64
2022/05/22 01:38:21;;;;;;;;;19.00;17.60;;;;;;;;5038313;28;8784;-64
2022/05/22 01:40:47;;;;;;;;;16.20;13.20;;;;;;;;5035358;28;8763;-65
2022/05/22 01:43:14;;;;;;;;;13.80;12.80;;;;;;;;5017946;28;8833;-65
2022/05/22 01:45:41;;;;;;;;;17.20;14.00;;;;;;;;5017889;28;8763;-64
2022/05/22 01:48:10;;;;;;;;;20.20;15.40;;;;;;;;5001110;28;8738;-64
2022/05/22 01:50:38;;;;;;;;;14.60;13.80;;;;;;;;5018650;28;8877;-64
2022/05/22 01:53:05;;;;;;;;;14.40;14.00;;;;;;;;5018777;28;8739;-64
2022/05/22 01:55:32;;;;;;;;;12.60;12.60;;;;;;;;5019206;28;9395;-64
2022/05/22 01:57:59;;;;;;;;;13.60;11.40;;;;;;;;5038764;28;8740;-64
2022/05/22 02:00:26;;;;;;;;;13.20;13.20;;;;;;;;5038103;28;8760;-64
2022/05/22 02:02:56;;;;;;;;;17.00;13.40;;;;;;;;5038177;28;8772;-64
2022/05/22 02:05:23;;;;;;;;;14.20;12.20;;;;;;;;5037890;28;8780;-64
2022/05/22 02:10:46;;;;;;;;;16.20;12.80;;;;;;;;5021994;28;8759;-64
2022/05/22 02:13:16;;;;;;;;;17.60;13.80;;;;;;;;5018834;28;8820;-65
2022/05/22 02:15:44;;;;;;;;;14.60;14.00;;;;;;;;5018129;28;8751;-64
2022/05/22 02:18:11;;;;;;;;;12.60;11.80;;;;;;;;5018231;28;8719;-64
2022/05/22 02:20:38;;;;;;;;;16.80;13.60;;;;;;;;5018008;28;8751;-64
2022/05/22 02:23:04;;;;;;;;;14.40;12.00;;;;;;;;5016928;28;8810;-65
2022/05/22 02:25:35;;;;;;;;;15.40;15.00;;;;;;;;5019194;28;8715;-64
2022/05/22 02:28:02;;;;;;;;;15.00;12.20;;;;;;;;5038377;28;8822;-64
2022/05/22 02:30:29;;;;;;;;;14.00;13.60;;;;;;;;5037372;28;8772;-64
2022/05/22 02:32:56;;;;;;;;;14.40;12.40;;;;;;;;5037556;28;8791;-64
2022/05/22 02:35:23;;;;;;;;;15.20;14.00;;;;;;;;5037650;28;8749;-64
2022/05/22 02:37:50;;;;;;;;;14.40;14.00;;;;;;;;5037693;28;8911;-64
2022/05/22 02:40:18;;;;;;;;;18.40;15.60;;;;;;;;5038139;28;8757;-64
2022/05/22 02:42:48;;;;;;;;;14.40;14.40;;;;;;;;5016628;28;8871;-64
2022/05/22 02:45:15;;;;;;;;;16.00;13.00;;;;;;;;5017546;28;8814;-65
2022/05/22 02:47:42;;;;;;;;;15.20;13.60;;;;;;;;5016678;28;9060;-65
2022/05/22 02:50:09;;;;;;;;;17.40;14.00;;;;;;;;5017845;28;8755;-65
2022/05/22 02:52:36;;;;;;;;;14.80;14.80;;;;;;;;5017278;28;8747;-65
2022/05/22 02:55:03;;;;;;;;;13.80;13.00;;;;;;;;5017773;28;8758;-65
2022/05/22 02:57:29;;;;;;;;;13.20;10.40;;;;;;;;5034170;28;8879;-65
2022/05/22 02:59:56;;;;;;;;;15.40;12.80;;;;;;;;5036952;28;9232;-65
2022/05/22 03:02:23;;;;;;;;;15.80;14.20;;;;;;;;5058842;28;8788;-64
2022/05/22 03:04:49;;;;;;;;;15.20;13.20;;;;;;;;5035827;28;8756;-65
2022/05/22 03:07:17;;;;;;;;;11.80;10.80;;;;;;;;5037245;28;8745;-65
2022/05/22 03:09:44;;;;;;;;;13.40;13.00;;;;;;;;5035737;28;8752;-65
2022/05/22 03:12:11;;;;;;;;;14.00;12.40;;;;;;;;5022572;28;8850;-64
2022/05/22 03:14:38;;;;;;;;;13.60;10.60;;;;;;;;5017139;28;8802;-65
2022/05/22 03:17:05;;;;;;;;;15.40;14.60;;;;;;;;5017237;28;8802;-64
2022/05/22 03:19:31;;;;;;;;;13.40;12.00;;;;;;;;5016520;28;8755;-64
2022/05/22 03:21:58;;;;;;;;;17.20;14.40;;;;;;;;5017520;28;8770;-64
2022/05/22 03:24:25;;;;;;;;;16.80;10.40;;;;;;;;5016808;28;8735;-64
2022/05/22 03:26:52;;;;;;;;;18.60;15.80;;;;;;;;5028812;28;8773;-64
2022/05/22 03:29:18;;;;;;;;;14.60;14.00;;;;;;;;5035547;28;8791;-63
2022/05/22 03:31:45;;;;;;;;;19.40;13.00;;;;;;;;5036719;28;8776;-65
2022/05/22 03:34:12;;;;;;;;;17.20;17.00;;;;;;;;5037303;28;8748;-64
2022/05/22 03:36:39;;;;;;;;;17.60;14.40;;;;;;;;5036692;28;8753;-64
2022/05/22 03:39:07;;;;;;;;;16.40;14.60;;;;;;;;5036555;28;8790;-64
2022/05/22 03:41:35;;;;;;;;;19.80;16.20;;;;;;;;5026859;28;8813;-64
2022/05/22 03:44:02;;;;;;;;;15.20;13.40;;;;;;;;5017039;28;8821;-65
2022/05/22 03:46:28;;;;;;;;;20.20;17.00;;;;;;;;5016593;28;8755;-64
2022/05/22 03:48:55;;;;;;;;;17.80;15.00;;;;;;;;5017562;28;8751;-64
2022/05/22 03:51:22;;;;;;;;;18.40;14.60;;;;;;;;5016590;28;8759;-64
2022/05/22 03:53:48;;;;;;;;;18.80;15.60;;;;;;;;5015427;28;9423;-64
2022/05/22 03:56:16;;;;;;;;;18.20;17.20;;;;;;;;5023614;28;8807;-64
2022/05/22 03:58:43;;;;;;;;;15.60;13.40;;;;;;;;5036278;28;8826;-64
2022/05/22 04:01:09;;;;;;;;;15.20;15.20;;;;;;;;5036973;28;8744;-64
2022/05/22 04:03:36;;;;;;;;;13.20;12.00;;;;;;;;5036250;28;8841;-64
2022/05/22 04:06:03;;;;;;;;;17.60;14.40;;;;;;;;5036497;28;8748;-64
2022/05/22 04:08:30;;;;;;;;;16.40;14.80;;;;;;;;5036193;28;8751;-64
2022/05/22 04:10:57;;;;;;;;;19.60;15.80;;;;;;;;5032261;28;8870;-64
2022/05/22 04:13:24;;;;;;;;;18.80;15.80;;;;;;;;5016952;28;8727;-64
2022/05/22 04:15:51;;;;;;;;;18.20;15.00;;;;;;;;5017056;28;8739;-64
2022/05/22 04:18:18;;;;;;;;;17.00;15.20;;;;;;;;5016214;28;8755;-63
2022/05/22 04:20:44;;;;;;;;;17.80;17.80;;;;;;;;5017002;28;9369;-64
2022/05/22 04:25:56;;;;;;;;;18.40;18.40;;;;;;;;5020461;28;8776;-64
2022/05/22 04:28:24;;;;;;;;;11.80;11.80;;;;;;;;5036548;28;8728;-64
2022/05/22 04:30:50;;;;;;;;;18.80;15.80;;;;;;;;5036788;28;8733;-64
2022/05/22 04:33:17;;;;;;;;;18.20;16.80;;;;;;;;5039608;28;8749;-64
2022/05/22 04:35:44;;;;;;;;;15.80;14.80;;;;;;;;5022476;28;8837;-64
2022/05/22 04:38:11;;;;;;;;;20.20;15.20;;;;;;;;5039816;28;8793;-64
2022/05/22 04:40:38;;;;;;;;;16.40;14.60;;;;;;;;5037699;28;8764;-64
2022/05/22 04:43:05;;;;;;;;;17.00;14.60;;;;;;;;5020484;28;8813;-64
2022/05/22 04:45:32;;;;;;;;;16.00;15.00;;;;;;;;5019585;28;9038;-64
2022/05/22 04:47:59;;;;;;;;;17.20;15.80;;;;;;;;5018293;28;8849;-65
2022/05/22 04:50:26;;;;;;;;;19.20;17.20;;;;;;;;5019590;28;8881;-65
2022/05/22 04:52:52;;;;;;;;;15.40;15.00;;;;;;;;5020267;28;8842;-64
2022/05/22 04:55:19;;;;;;;;;20.80;18.00;;;;;;;;5019785;28;8747;-64
2022/05/22 04:57:46;;;;;;;;;21.40;16.00;;;;;;;;5038669;28;9493;-64
2022/05/22 05:00:13;;;;;;;;;20.60;15.20;;;;;;;;5039507;28;8779;-65
2022/05/22 05:02:39;;;;;;;;;19.40;16.80;;;;;;;;5039218;28;8773;-65
2022/05/22 05:05:08;;;;;;;;;18.60;16.00;;;;;;;;5039011;28;8768;-65
2022/05/22 05:07:37;;;;;;;;;20.00;15.40;;;;;;;;5037525;28;8883;-64
2022/05/22 05:10:04;;;;;;;;;18.40;15.00;;;;;;;;5039857;28;8737;-65
2022/05/22 05:12:31;;;;;;;;;15.00;15.00;;;;;;;;5021652;28;8735;-64
2022/05/22 05:15:00;;;;;;;;;20.20;15.80;;;;;;;;5017935;28;8793;-65
2022/05/22 05:17:26;;;;;;;;;17.00;14.80;;;;;;;;5018895;28;8831;-64
2022/05/22 05:19:53;;;;;;;;;18.60;17.20;;;;;;;;5019296;28;8882;-65
2022/05/22 05:22:20;;;;;;;;;17.40;16.40;;;;;;;;5019417;28;8782;-64
2022/05/22 05:24:47;;;;;;;;;15.20;13.80;;;;;;;;5019194;28;8769;-64
2022/05/22 05:27:13;;;;;;;;;17.00;14.80;;;;;;;;5034076;28;8776;-65
2022/05/22 05:29:40;;;;;;;;;17.20;17.00;;;;;;;;5038855;28;8815;-64
2022/05/22 05:32:07;;;;;;;;;20.80;17.80;;;;;;;;5038965;28;8772;-65
2022/05/22 05:34:34;;;;;;;;;16.60;14.80;;;;;;;;5038531;28;9332;-65
2022/05/22 05:37:00;;;;;;;;;20.60;16.00;;;;;;;;5038653;28;8796;-64
2022/05/22 05:39:28;;;;;;;;;16.80;15.20;;;;;;;;5038549;28;8804;-65
2022/05/22 05:41:55;;;;;;;;;20.40;16.60;;;;;;;;5040611;28;8769;-65
2022/05/22 05:44:22;;;;;;;;;21.40;15.00;;;;;;;;5004208;28;8849;-65
2022/05/22 05:46:50;;;;;;;;;22.00;20.00;;;;;;;;5017292;28;8778;-65
2022/05/22 05:49:17;;;;;;;;;15.20;14.00;;;;;;;;5019182;28;8764;-65
2022/05/22 05:51:43;;;;;;;;;18.80;18.00;;;;;;;;5018676;28;8751;-65
2022/05/22 05:54:10;;;;;;;;;16.20;14.80;;;;;;;;5018720;28;8746;-65
2022/05/22 05:56:40;;;;;;;;;16.00;14.80;;;;;;;;5027973;28;8779;-65
2022/05/22 05:59:07;;;;;;;;;16.80;15.80;;;;;;;;5036965;28;9410;-65
2022/05/22 06:01:34;;;;;;;;;19.40;16.60;;;;;;;;5038224;28;8859;-64
2022/05/22 06:04:01;;;;;;;;;17.00;16.60;;;;;;;;5038726;28;8760;-65
2022/05/22 06:06:28;;;;;;;;;18.20;14.60;;;;;;;;5038087;28;8736;-64
2022/05/22 06:08:55;;;;;;;;;22.40;16.80;;;;;;;;5038063;28;8833;-65
2022/05/22 06:11:22;;;;;;;;;20.40;17.60;;;;;;;;5028790;28;8884;-64
2022/05/22 06:13:49;;;;;;;;;19.80;18.00;;;;;;;;5017246;28;8750;-65
2022/05/22 06:16:16;;;;;;;;;19.00;16.40;;;;;;;;5018998;28;8739;-65
2022/05/22 06:18:43;;;;;;;;;18.80;15.80;;;;;;;;5015634;28;8743;-65
2022/05/22 06:21:11;;;;;;;;;22.80;17.40;;;;;;;;5018102;28;8738;-65
2022/05/22 06:23:38;;;;;;;;;16.20;13.40;;;;;;;;5018193;28;8773;-65
2022/05/22 06:26:06;;;;;;;;;25.40;16.00;;;;;;;;5023510;28;8759;-65
2022/05/22 06:28:33;;;;;;;;;22.20;19.00;;;;;;;;5037243;28;8725;-65
2022/05/22 06:31:03;;;;;;;;;18.80;16.40;;;;;;;;5038169;28;8724;-65
2022/05/22 06:33:30;;;;;;;;;17.80;17.00;;;;;;;;5037617;28;8733;-65
2022/05/22 06:35:57;;;;;;;;;18.40;14.80;;;;;;;;5037621;28;8763;-65
2022/05/22 06:41:09;;;;;;;;;22.60;17.20;;;;;;;;5031330;28;8742;-65
2022/05/22 06:43:36;;;;;;;;;16.40;15.80;;;;;;;;5017293;28;8722;-65
2022/05/22 06:46:03;;;;;;;;;20.40;16.80;;;;;;;;5018574;28;8758;-65
2022/05/22 06:48:30;;;;;;;;;19.60;15.60;;;;;;;;5017441;28;8727;-64
2022/05/22 06:50:57;;;;;;;;;14.60;14.20;;;;;;;;5017708;28;8873;-64
2022/05/22 06:53:26;;;;;;;;;15.20;15.20;;;;;;;;5017407;28;8790;-64
2022/05/22 06:55:53;;;;;;;;;24.20;19.80;;;;;;;;5020346;28;8842;-65
2022/05/22 06:58:20;;;;;;;;;19.80;16.60;;;;;;;;5037484;28;8817;-64
2022/05/22 07:00:51;;;;;;;;;20.00;14.40;;;;;;;;5036864;28;8849;-64
2022/05/22 07:03:17;;;;;;;;;21.20;17.80;;;;;;;;5037143;28;8780;-64
2022/05/22 07:05:44;;;;;;;;;19.60;18.20;;;;;;;;5035645;28;8752;-65
2022/05/22 07:08:11;;;;;;;;;16.80;14.20;;;;;;;;5036767;28;8768;-64
2022/05/22 07:13:23;;;;;;;;;18.00;16.40;;;;;;;;5017322;28;8889;-64
2022/05/22 07:16:08;;;;;;;;;22.00;18.60;;;;;;;;5017411;28;8786;-64
2022/05/22 07:18:34;;;;;;;;;18.60;17.00;;;;;;;;5010455;28;8734;-65
2022/05/22 07:21:01;;;;;;;;;21.60;17.20;;;;;;;;5016002;28;8731;-65
2022/05/22 07:23:28;;;;;;;;;20.60;16.40;;;;;;;;5016874;28;8771;-65
2022/05/22 07:25:54;;;;;;;;;17.40;14.00;;;;;;;;5020662;28;9530;-65
2022/05/22 07:28:21;;;;;;;;;20.40;16.60;;;;;;;;5037207;28;8858;-64
2022/05/22 07:30:49;;;;;;;;;19.40;16.80;;;;;;;;5036668;28;9107;-65
2022/05/22 07:33:17;;;;;;;;;18.20;16.20;;;;;;;;5035678;28;8776;-65
2022/05/22 07:35:53;;;;;;;;;21.60;18.40;;;;;;;;5036972;28;8784;-65
2022/05/22 07:38:19;;;;;;;;;22.40;15.60;;;;;;;;5036345;28;8820;-64
2022/05/22 07:40:46;;;;;;;;;16.20;14.20;;;;;;;;5033828;28;8755;-64
2022/05/22 07:43:13;;;;;;;;;21.20;19.40;;;;;;;;5017667;28;8870;-65
2022/05/22 07:45:40;;;;;;;;;20.00;18.20;;;;;;;;5016460;28;8779;-65
2022/05/22 07:48:07;;;;;;;;;18.40;15.00;;;;;;;;5017188;28;8891;-65
2022/05/22 07:50:34;;;;;;;;;17.80;16.00;;;;;;;;5016628;28;8770;-65
2022/05/22 07:53:01;;;;;;;;;21.20;17.80;;;;;;;;5015353;28;8767;-65
2022/05/22 07:55:27;;;;;;;;;19.20;16.40;;;;;;;;5016391;28;9535;-64
2022/05/22 07:57:54;;;;;;;;;23.80;17.60;;;;;;;;5036883;28;8830;-65
2022/05/22 08:00:21;;;;;;;;;23.60;21.00;;;;;;;;5036184;28;8902;-64
2022/05/22 08:02:48;;;;;;;;;18.00;17.20;;;;;;;;5035345;28;9421;-65
2022/05/22 08:05:17;;;;;;;;;18.20;17.40;;;;;;;;5036195;28;8907;-65
2022/05/22 08:07:44;;;;;;;;;19.00;15.80;;;;;;;;5039697;28;8739;-65
2022/05/22 08:10:11;;;;;;;;;22.60;18.80;;;;;;;;5041015;28;8806;-65
2022/05/22 08:12:38;;;;;;;;;22.00;17.40;;;;;;;;5022216;28;8964;-65
2022/05/22 08:17:51;;;;;;;;;20.00;14.80;;;;;;;;5020112;28;8855;-65
2022/05/22 08:20:18;;;;;;;;;21.00;18.00;;;;;;;;5020370;28;8802;-64
2022/05/22 08:22:45;;;;;;;;;20.00;17.00;;;;;;;;5020168;28;8814;-65
2022/05/22 08:25:16;;;;;;;;;23.00;17.20;;;;;;;;5020901;28;8817;-65
2022/05/22 08:27:44;;;;;;;;;23.80;19.60;;;;;;;;5039105;28;8764;-65
2022/05/22 08:30:11;;;;;;;;;22.80;15.60;;;;;;;;5040321;28;8887;-65
2022/05/22 08:32:41;;;;;;;;;22.20;18.40;;;;;;;;5040093;28;8822;-65
2022/05/22 08:35:09;;;;;;;;;18.40;16.00;;;;;;;;5039900;28;8775;-65
2022/05/22 08:37:35;;;;;;;;;23.60;15.80;;;;;;;;5039660;28;8828;-65
2022/05/22 08:40:04;;;;;;;;;21.00;19.40;;;;;;;;5040358;28;8767;-65
2022/05/22 08:42:43;;;;;;;;;16.20;15.80;;;;;;;;5022456;28;8782;-65
2022/05/22 08:45:17;;;;;;;;;21.80;16.60;;;;;;;;5019801;28;8759;-65
2022/05/22 08:47:50;;;;;;;;;20.20;16.80;;;;;;;;5019879;28;8763;-65
2022/05/22 08:50:17;;;;;;;;;16.40;16.40;;;;;;;;5019810;28;8941;-64
2022/05/22 08:52:43;;;;;;;;;20.60;15.20;;;;;;;;5018310;28;8754;-65
2022/05/22 08:55:16;;;;;;;;;18.40;17.80;;;;;;;;5020370;28;8715;-65
2022/05/22 09:00:52;;;;;;;;;20.00;18.80;;;;;;;;5040005;28;8740;-65
2022/05/22 09:03:24;;;;;;;;;20.80;18.00;;;;;;;;5039140;28;8780;-65
2022/05/22 09:05:54;;;;;;;;;2.60;1.80;;;;;;;;5022569;28;8776;-65
2022/05/22 09:08:21;;;;;;;;;21.60;19.40;;;;;;;;5039027;28;8796;-64
2022/05/22 09:10:48;;;;;;;;;21.20;18.60;;;;;;;;5035243;28;8909;-65
2022/05/22 09:13:19;;;;;;;;;18.40;16.20;;;;;;;;5019951;28;8755;-65
2022/05/22 09:15:51;;;;;;;;;21.20;14.60;;;;;;;;5018260;28;9898;-65
2022/05/22 09:18:24;;;;;;;;;21.80;17.40;;;;;;;;5016576;28;9512;-62
2022/05/22 09:20:58;;;;;;;;;19.40;15.60;;;;;;;;5019660;28;8869;-65
2022/05/22 09:23:32;;;;;;;;;21.00;17.60;;;;;;;;5010238;28;8763;-65
2022/05/22 09:25:59;;;;;;;;;17.00;16.20;;;;;;;;5022682;28;8788;-63
2022/05/22 09:28:44;;;;;;;;;23.00;18.80;;;;;;;;5038359;28;8783;-61
2022/05/22 09:31:15;;;;;;;;;22.00;19.20;;;;;;;;5040045;28;8737;-63
2022/05/22 09:34:08;;;;;;;;;25.00;19.00;;;;;;;;5038991;28;8866;-63
2022/05/22 09:36:52;;;;;;;;;17.60;15.40;;;;;;;;5036873;28;8772;-63
2022/05/22 09:39:21;;;;;;;;;21.80;18.00;;;;;;;;5037453;28;8788;-62
2022/05/22 09:42:00;;;;;;;;;25.60;21.80;;;;;;;;5027536;28;8791;-63
2022/05/22 09:44:33;;;;;;;;;24.00;17.80;;;;;;;;5018860;28;8829;-63
2022/05/22 09:47:06;;;;;;;;;25.20;22.00;;;;;;;;5018616;28;8763;-63
2022/05/22 09:49:33;;;;;;;;;24.00;20.40;;;;;;;;5017835;28;8790;-63
2022/05/22 09:52:19;;;;;;;;;31.25;27.50;;;;;;;;5019060;28;8817;-63
2022/05/22 09:55:05;;;;;;;;;26.25;21.75;;;;;;;;5017944;28;8796;-63
2022/05/22 09:57:34;;;;;;;;;21.80;17.20;;;;;;;;5035220;28;8772;-62
2022/05/22 10:00:03;;;;;;;;;27.00;22.50;;;;;;;;5038367;28;8879;-63
2022/05/22 10:02:36;;;;;;;;;23.00;19.00;;;;;;;;5038193;28;8869;-62
2022/05/22 10:05:12;;;;;;;;;25.40;21.40;;;;;;;;5037151;28;9385;-63
2022/05/22 10:07:44;;;;;;;;;27.25;23.50;;;;;;;;5038242;28;8762;-63
2022/05/22 10:10:26;;;;;;;;;26.60;21.20;;;;;;;;5037924;28;9514;-63
2022/05/22 10:13:09;;;;;;;;;26.20;23.60;;;;;;;;5019294;28;8743;-63
2022/05/22 10:15:54;;;;;;;;;28.25;24.00;;;;;;;;5049838;28;8775;-63
2022/05/22 10:18:40;;;;;;;;;30.00;25.40;;;;;;;;5017883;28;8819;-62
2022/05/22 10:21:07;;;;;;;;;31.40;26.20;;;;;;;;4997696;28;8751;-63
2022/05/22 10:23:51;;;;;;;;;29.00;23.60;;;;;;;;5017769;28;8747;-63
2022/05/22 10:26:25;;;;;;;;;28.75;26.00;;;;;;;;4990774;28;8801;-62
2022/05/22 10:28:57;;;;;;;;;25.25;23.50;;;;;;;;5016856;28;8763;-63
2022/05/22 10:31:26;;;;;;;;;27.20;25.40;;;;;;;;5018399;28;8755;-63
2022/05/22 10:34:02;;;;;;;;;28.00;23.40;;;;;;;;5018286;28;8736;-63
2022/05/22 10:36:30;;;;;;;;;26.80;22.20;;;;;;;;5017670;28;8841;-62
2022/05/22 10:38:57;;;;;;;;;32.50;25.50;;;;;;;;5017576;28;8786;-63
2022/05/22 10:44:10;;;;;;;;;26.00;25.25;;;;;;;;5036744;28;8745;-63
2022/05/22 10:46:58;;;;;;;;;29.60;26.80;;;;;;;;5037094;28;8729;-63
2022/05/22 10:49:26;;;;;;;;;29.00;24.25;;;;;;;;5037368;28;8764;-58
2022/05/22 10:51:59;;;;;;;;;29.50;28.25;;;;;;;;5037873;28;8776;-63
2022/05/22 10:54:29;;;;;;;;;26.00;21.80;;;;;;;;5036952;28;8972;-62
2022/05/22 10:57:28;;;;;;;;;34.75;28.75;;;;;;;;5025220;28;8798;-63
2022/05/22 10:59:54;;;;;;;;;33.50;26.75;;;;;;;;4985092;28;9848;-63
2022/05/22 11:02:25;;;;;;;;;28.00;27.25;;;;;;;;5015816;28;8875;-62
2022/05/22 11:04:52;;;;;;;;;36.25;26.25;;;;;;;;5017421;28;8759;-63
2022/05/22 11:07:35;;;;;;;;;29.50;25.75;;;;;;;;5017459;28;8763;-61
2022/05/22 11:10:10;;;;;;;;;26.50;19.75;;;;;;;;5016683;28;8759;-63
2022/05/22 11:12:36;;;;;;;;;34.00;28.25;;;;;;;;5034697;28;8886;-63
2022/05/22 11:15:07;;;;;;;;;38.50;28.50;;;;;;;;5037108;28;8756;-63
2022/05/22 11:17:33;;;;;;;;;34.25;26.75;;;;;;;;5035609;28;8800;-63
2022/05/22 11:20:02;;;;;;;;;32.00;29.50;;;;;;;;5036527;28;8831;-63
2022/05/22 11:22:58;;;;;;;;;33.25;25.75;;;;;;;;5036806;28;8943;-62
2022/05/22 11:25:43;;;;;;;;;28.20;25.80;;;;;;;;5037250;28;8732;-59
2022/05/22 11:28:09;;;;;;;;;29.20;27.40;;;;;;;;5018029;28;8782;-63
2022/05/22 11:30:41;;;;;;;;;29.50;23.25;;;;;;;;5017085;28;8763;-63
2022/05/22 11:33:07;;;;;;;;;27.00;24.75;;;;;;;;5015967;28;8743;-63
2022/05/22 11:35:38;;;;;;;;;35.00;27.50;;;;;;;;5016874;28;8751;-63
2022/05/22 11:38:19;;;;;;;;;34.25;30.25;;;;;;;;5016427;28;8841;-62
2022/05/22 11:40:57;;;;;;;;;35.00;31.25;;;;;;;;5018806;28;8773;-63
2022/05/22 11:43:27;;;;;;;;;32.50;27.50;;;;;;;;5035474;28;8748;-63
2022/05/22 11:45:53;;;;;;;;;28.50;27.50;;;;;;;;5037041;28;8748;-63
2022/05/22 11:48:38;;;;;;;;;39.00;32.00;;;;;;;;5036470;28;9504;-61
2022/05/22 11:51:24;;;;;;;;;36.75;30.50;;;;;;;;5036798;28;8760;-62
2022/05/22 11:53:59;;;;;;;;;30.25;30.25;;;;;;;;5036850;28;8855;-63
2022/05/22 11:56:32;;;;;;;;;34.00;29.25;;;;;;;;5028680;28;8770;-63
2022/05/22 11:59:08;;;;;;;;;36.25;28.50;;;;;;;;5017067;28;8783;-63
2022/05/22 12:01:53;;;;;;;;;31.75;27.75;;;;;;;;5017060;28;8841;-63
2022/05/22 12:04:32;;;;;;;;;34.50;29.75;;;;;;;;5018211;28;8762;-62
2022/05/22 12:07:37;;;;;;;;;28.25;24.00;;;;;;;;5017248;28;8770;-63
2022/05/22 12:10:10;;;;;;;;;29.50;28.25;;;;;;;;4957003;29;8983;-63
2022/05/22 12:12:53;;;;;;;;;34.50;31.00;;;;;;;;4973417;28;8760;-63
2022/05/22 12:15:31;;;;;;;;;40.00;32.25;;;;;;;;5022926;28;8801;-61
2022/05/22 12:18:00;;;;;;;;;42.20;30.00;;;;;;;;5036219;28;9457;-63
2022/05/22 12:20:36;;;;;;;;;37.50;31.25;;;;;;;;5035968;28;9396;-62
2022/05/22 12:23:21;;;;;;;;;31.75;28.25;;;;;;;;5035334;28;8784;-63
2022/05/22 12:25:48;;;;;;;;;43.00;32.25;;;;;;;;5034056;28;8842;-63
2022/05/22 12:28:19;;;;;;;;;37.75;32.00;;;;;;;;5015840;28;8866;-63
2022/05/22 12:30:46;;;;;;;;;41.00;32.50;;;;;;;;5016431;28;8769;-62
2022/05/22 12:33:13;;;;;;;;;39.75;32.75;;;;;;;;5015346;28;8767;-63
2022/05/22 12:35:40;;;;;;;;;43.75;32.50;;;;;;;;5015106;28;8799;-63
2022/05/22 12:38:07;;;;;;;;;36.50;33.25;;;;;;;;5016356;28;8810;-63
2022/05/22 12:40:43;;;;;;;;;38.75;34.50;;;;;;;;4999517;28;8751;-63
2022/05/22 12:43:10;;;;;;;;;36.00;32.25;;;;;;;;5036778;28;8740;-62
2022/05/22 12:45:37;;;;;;;;;43.50;34.75;;;;;;;;5035994;28;8858;-63
2022/05/22 12:48:15;;;;;;;;;38.50;33.00;;;;;;;;5035147;28;8836;-63
2022/05/22 12:50:49;;;;;;;;;38.75;32.50;;;;;;;;5036124;28;8770;-63
2022/05/22 12:53:21;;;;;;;;;36.50;31.50;;;;;;;;5019740;28;8764;-63
2022/05/22 12:55:47;;;;;;;;;39.25;33.00;;;;;;;;5037041;28;8756;-63
2022/05/22 12:58:31;;;;;;;;;44.00;33.33;;;;;;;;5020550;28;8813;-63
2022/05/22 13:00:58;;;;;;;;;46.75;34.00;;;;;;;;5035575;28;8763;-63
2022/05/22 13:03:27;;;;;;;;;43.00;35.25;;;;;;;;5019593;28;8775;-63
2022/05/22 13:06:01;;;;;;;;;42.25;36.00;;;;;;;;5019790;28;8782;-63
2022/05/22 13:08:36;;;;;;;;;47.00;37.00;;;;;;;;5017947;28;8890;-63
2022/05/22 13:11:02;;;;;;;;;46.50;37.00;;;;;;;;5023342;28;8740;-63
2022/05/22 13:13:32;;;;;;;;;43.00;35.00;;;;;;;;5038303;28;8859;-63
2022/05/22 13:16:05;;;;;;;;;52.25;37.50;;;;;;;;5039853;28;8770;-63
2022/05/22 13:18:32;;;;;;;;;45.50;38.25;;;;;;;;5037776;28;8932;-63
2022/05/22 13:21:00;;;;;;;;;48.75;38.50;;;;;;;;5038031;28;8787;-63
2022/05/22 13:23:28;;;;;;;;;50.75;40.00;;;;;;;;5039049;28;8898;-63
2022/05/22 13:26:03;;;;;;;;;47.25;39.25;;;;;;;;5035500;28;8767;-63
2022/05/22 13:28:36;;;;;;;;;48.50;39.50;;;;;;;;5019222;28;8755;-63
2022/05/22 13:31:11;;;;;;;;;48.00;38.75;;;;;;;;5019770;28;8818;-63
2022/05/22 13:33:42;;;;;;;;;47.25;35.50;;;;;;;;5009560;28;9762;-63
2022/05/22 13:36:35;;;;;;;;;45.75;37.00;;;;;;;;5019370;28;8873;-63
2022/05/22 13:39:03;;;;;;;;;47.00;40.50;;;;;;;;5016695;28;8821;-63
2022/05/22 13:41:42;;;;;;;;;47.25;39.25;;;;;;;;5026804;28;8760;-63
2022/05/22 13:44:11;;;;;;;;;43.75;34.00;;;;;;;;5038889;28;8790;-63
2022/05/22 13:46:38;;;;;;;;;50.50;39.00;;;;;;;;5038888;28;8759;-63
2022/05/22 13:49:05;;;;;;;;;47.25;39.00;;;;;;;;5039786;28;8867;-63
2022/05/22 13:54:38;;;;;;;;;46.75;35.75;;;;;;;;5038992;28;8752;-59
2022/05/22 13:57:06;;;;;;;;;45.75;37.75;;;;;;;;5025479;28;8797;-63
2022/05/22 13:59:36;;;;;;;;;50.25;38.25;;;;;;;;5017327;28;8783;-63
2022/05/22 14:02:04;;;;;;;;;42.00;34.75;;;;;;;;5017170;28;8774;-62
2022/05/22 14:04:31;;;;;;;;;48.00;38.00;;;;;;;;5017901;28;8743;-63
2022/05/22 14:06:58;;;;;;;;;41.75;35.25;;;;;;;;5019045;28;8781;-63
2022/05/22 14:09:30;;;;;;;;;47.25;37.00;;;;;;;;5017288;28;8782;-62
2022/05/22 14:11:56;;;;;;;;;48.50;33.75;;;;;;;;5029021;28;8858;-63
2022/05/22 14:14:31;;;;;;;;;42.25;36.00;;;;;;;;5036710;28;8768;-62
2022/05/22 14:16:59;;;;;;;;;45.50;37.75;;;;;;;;5038353;28;8769;-63
2022/05/22 14:19:27;;;;;;;;;44.00;35.50;;;;;;;;5037442;28;8800;-62
2022/05/22 14:21:54;;;;;;;;;41.25;34.75;;;;;;;;5038589;28;8814;-63
2022/05/22 14:27:08;;;;;;;;;38.75;30.25;;;;;;;;5024634;28;8747;-62
2022/05/22 14:29:34;;;;;;;;;45.00;35.00;;;;;;;;5017794;28;8767;-63
2022/05/22 14:32:01;;;;;;;;;49.25;38.50;;;;;;;;5017577;28;8790;-62
2022/05/22 14:34:28;;;;;;;;;38.25;33.75;;;;;;;;5017757;28;8763;-62
2022/05/22 14:36:55;;;;;;;;;40.50;35.00;;;;;;;;5018263;28;8755;-65
2022/05/22 14:39:24;;;;;;;;;29.25;24.75;;;;;;;;5016719;28;8775;-64
2022/05/22 14:41:51;;;;;;;;;37.50;31.25;;;;;;;;5028871;28;8768;-65
2022/05/22 14:44:30;;;;;;;;;27.75;26.25;;;;;;;;5037528;28;8763;-64
2022/05/22 14:46:58;;;;;;;;;32.75;28.25;;;;;;;;5037399;28;8752;-64
2022/05/22 14:49:38;;;;;;;;;33.00;29.25;;;;;;;;5037721;28;8812;-64
2022/05/22 14:52:06;;;;;;;;;34.00;29.00;;;;;;;;5036603;28;8767;-64
2022/05/22 14:54:49;;;;;;;;;29.60;27.20;;;;;;;;5037435;28;8768;-64
2022/05/22 14:57:22;;;;;;;;;31.80;26.00;;;;;;;;5022794;28;8767;-65
2022/05/22 14:59:58;;;;;;;;;28.00;26.20;;;;;;;;5016903;28;8766;-65
2022/05/22 15:02:45;;;;;;;;;28.60;23.80;;;;;;;;5017202;28;9404;-64
2022/05/22 15:05:15;;;;;;;;;25.60;20.40;;;;;;;;5017770;28;8743;-64
2022/05/22 15:07:59;;;;;;;;;19.20;17.20;;;;;;;;5017799;28;8770;-64
2022/05/22 15:10:26;;;;;;;;;17.00;16.00;;;;;;;;5017603;28;8858;-63
2022/05/22 15:12:52;;;;;;;;;18.00;16.80;;;;;;;;5037604;28;8831;-64